createdAt,value
2022-09-21T00:01:15.965Z,102421.38
2022-09-21T00:03:43.794Z,102423.16
2022-09-21T00:06:13.708Z,102421.63
2022-09-21T00:08:41.053Z,102412.06
2022-09-21T00:11:08.924Z,102413.84
2022-09-21T00:13:38.119Z,102409.56
2022-09-21T00:16:09.416Z,102400.94
2022-09-21T00:18:36.616Z,102398.28
2022-09-21T00:21:15.134Z,102402.78
2022-09-21T00:23:42.893Z,102397.53
2022-09-21T00:26:16.047Z,102401.94
2022-09-21T00:28:44.717Z,102387.28
2022-09-21T00:31:15.106Z,102385.34
2022-09-21T00:33:43.831Z,102385.41
2022-09-21T00:36:18.825Z,102388.97
2022-09-21T00:38:49.504Z,102382.91
2022-09-21T00:41:16.505Z,102386.41
2022-09-21T00:43:48.108Z,102387.41
2022-09-21T00:46:29.180Z,102387.41
2022-09-21T00:48:57.819Z,102382.28
2022-09-21T00:51:25.839Z,102381.38
2022-09-21T00:53:58.473Z,102377.84
2022-09-21T00:56:26.068Z,102375.28
2022-09-21T00:58:55.069Z,102382.34
2022-09-21T01:01:22.517Z,102370.09
2022-09-21T01:03:51.769Z,102363.97
2022-09-21T01:06:21.785Z,102367.53
2022-09-21T01:08:53.184Z,102368.44
2022-09-21T01:11:19.833Z,102367.59
2022-09-21T01:13:55.578Z,102369.47
2022-09-21T01:16:48.942Z,102366.03
2022-09-21T01:19:21.768Z,102370.44
2022-09-21T01:22:24.928Z,102369.59
2022-09-21T01:25:07.327Z,102368.72
2022-09-21T01:27:46.911Z,102368.72
2022-09-21T01:30:20.319Z,102363.47
2022-09-21T01:32:57.962Z,102373.16
2022-09-21T01:35:36.217Z,102375.78
2022-09-21T01:38:08.246Z,102371.47
2022-09-21T01:40:40.758Z,102355.72
2022-09-21T01:43:14.303Z,102361.91
2022-09-21T01:45:48.373Z,102363.63
2022-09-21T01:48:17.724Z,102358.34
2022-09-21T01:50:50.762Z,102359.25
2022-09-21T01:53:36.654Z,102360.22
2022-09-21T01:56:33.287Z,102348.78
2022-09-21T01:59:20.052Z,102353.22
2022-09-21T02:01:56.305Z,102349.66
2022-09-21T02:04:24.027Z,102344.38
2022-09-21T02:06:51.988Z,102334.75
2022-09-21T02:09:19.599Z,102329.47
2022-09-21T02:11:46.649Z,102323.28
2022-09-21T02:14:20.563Z,102317.06
2022-09-21T02:16:56.573Z,102310.09
2022-09-21T02:19:44.461Z,102317.06
2022-09-21T02:22:38.179Z,102309.16
2022-09-21T02:25:14.339Z,102310.00
2022-09-21T02:27:47.175Z,102317.91
2022-09-21T02:30:16.622Z,102311.03
2022-09-21T02:32:54.579Z,102304.03
2022-09-21T02:35:40.154Z,102306.72
2022-09-21T02:38:07.006Z,102314.75
2022-09-21T02:40:39.450Z,102316.75
2022-09-21T02:43:17.526Z,102323.13
2022-09-21T02:45:51.539Z,102315.75
2022-09-21T02:48:29.642Z,102312.59
2022-09-21T02:51:00.087Z,102310.53
2022-09-21T02:53:36.694Z,102308.59
2022-09-21T02:56:07.433Z,102321.66
2022-09-21T02:58:43.853Z,102320.47
2022-09-21T03:01:12.741Z,102321.34
2022-09-21T03:03:39.689Z,102331.53
2022-09-21T03:06:06.835Z,102333.91
2022-09-21T03:08:33.725Z,102335.31
2022-09-21T03:11:01.129Z,102328.06
2022-09-21T03:13:28.040Z,102326.91
2022-09-21T03:16:03.412Z,102321.41
2022-09-21T03:18:30.930Z,102329.78
2022-09-21T03:20:58.327Z,102325.06
2022-09-21T03:23:26.091Z,102324.59
2022-09-21T03:25:52.937Z,102318.91
2022-09-21T03:28:20.200Z,102320.16
2022-09-21T03:30:49.451Z,102322.25
2022-09-21T03:33:16.946Z,102313.75
2022-09-21T03:35:43.897Z,102324.47
2022-09-21T03:38:11.207Z,102314.19
2022-09-21T03:40:38.073Z,102316.97
2022-09-21T03:43:04.831Z,102312.84
2022-09-21T03:45:31.675Z,102313.03
2022-09-21T03:48:00.261Z,102297.59
2022-09-21T03:50:29.511Z,102310.75
2022-09-21T03:52:57.115Z,102311.72
2022-09-21T03:55:24.259Z,102303.06
2022-09-21T03:57:51.104Z,102311.81
2022-09-21T04:00:18.214Z,102311.94
2022-09-21T04:02:45.229Z,102316.44
2022-09-21T04:05:16.753Z,102314.81
2022-09-21T04:07:46.062Z,102304.53
2022-09-21T04:10:16.535Z,102304.75
2022-09-21T04:12:44.552Z,102304.00
2022-09-21T04:15:14.211Z,102292.84
2022-09-21T04:17:41.617Z,102298.91
2022-09-21T04:20:09.435Z,102295.44
2022-09-21T04:22:43.349Z,102297.22
2022-09-21T04:25:12.965Z,102290.28
2022-09-21T04:27:41.181Z,102282.50
2022-09-21T04:30:10.367Z,102291.97
2022-09-21T04:32:37.375Z,102285.09
2022-09-21T04:35:04.573Z,102283.22
2022-09-21T04:37:31.461Z,102285.69
2022-09-21T04:39:58.555Z,102282.78
2022-09-21T04:42:26.041Z,102281.66
2022-09-21T04:44:53.010Z,102284.09
2022-09-21T04:47:23.545Z,102275.06
2022-09-21T04:49:50.699Z,102284.41
2022-09-21T04:52:19.217Z,102277.19
2022-09-21T04:54:47.291Z,102265.84
2022-09-21T04:57:15.392Z,102274.06
2022-09-21T04:59:42.371Z,102282.59
2022-09-21T05:02:09.473Z,102271.97
2022-09-21T05:04:36.410Z,102272.72
2022-09-21T05:07:03.205Z,102272.66
2022-09-21T05:09:48.574Z,102270.88
2022-09-21T05:12:15.417Z,102268.22
2022-09-21T05:14:44.222Z,102270.78
2022-09-21T05:17:12.691Z,102271.63
2022-09-21T05:19:40.360Z,102267.38
2022-09-21T05:22:07.301Z,102263.81
2022-09-21T05:24:34.244Z,102267.38
2022-09-21T05:27:02.002Z,102263.84
2022-09-21T05:29:29.303Z,102263.06
2022-09-21T05:32:26.048Z,102265.59
2022-09-21T05:35:04.870Z,102256.78
2022-09-21T05:37:52.811Z,102253.25
2022-09-21T05:40:20.002Z,102260.22
2022-09-21T05:42:47.166Z,102258.34
2022-09-21T05:45:16.673Z,102262.59
2022-09-21T05:48:09.359Z,102269.47
2022-09-21T05:51:09.282Z,102276.41
2022-09-21T05:53:42.165Z,102264.22
2022-09-21T05:56:15.467Z,102266.97
2022-09-21T05:59:03.765Z,102262.59
2022-09-21T06:02:01.390Z,102261.03
2022-09-21T06:04:28.548Z,102262.09
2022-09-21T06:06:55.410Z,102266.69
2022-09-21T06:09:22.253Z,102253.72
2022-09-21T06:11:49.162Z,102250.41
2022-09-21T06:14:16.097Z,102254.84
2022-09-21T06:16:43.641Z,102251.44
2022-09-21T06:19:14.131Z,102242.72
2022-09-21T06:21:41.086Z,102249.59
2022-09-21T06:24:08.441Z,102244.22
2022-09-21T06:26:35.486Z,102244.84
2022-09-21T06:29:02.334Z,102243.78
2022-09-21T06:31:29.372Z,102235.59
2022-09-21T06:33:56.776Z,102232.81
2022-09-21T06:36:23.777Z,102217.75
2022-09-21T06:38:50.665Z,102232.78
2022-09-21T06:41:21.020Z,102243.72
2022-09-21T06:43:48.289Z,102240.56
2022-09-21T06:46:15.223Z,102240.13
2022-09-21T06:48:42.237Z,102237.06
2022-09-21T06:51:10.461Z,102234.88
2022-09-21T06:53:37.267Z,102242.31
2022-09-21T06:56:06.239Z,102240.09
2022-09-21T06:58:37.720Z,102228.34
2022-09-21T07:01:10.307Z,102236.41
2022-09-21T07:03:38.147Z,102232.09
2022-09-21T07:06:06.306Z,102233.16
2022-09-21T07:11:21.190Z,102233.38
2022-09-21T07:13:48.085Z,102240.69
2022-09-21T07:16:14.911Z,102232.91
2022-09-21T07:18:43.733Z,102237.69
2022-09-21T07:21:11.794Z,102231.25
2022-09-21T07:23:38.892Z,102234.09
2022-09-21T07:26:08.913Z,102239.50
2022-09-21T07:28:36.321Z,102220.59
2022-09-21T07:31:17.068Z,102223.94
2022-09-21T07:33:47.309Z,102227.41
2022-09-21T07:36:14.353Z,102225.28
2022-09-21T07:38:43.189Z,102221.34
2022-09-21T07:41:12.751Z,102221.72
2022-09-21T07:43:40.592Z,102219.34
2022-09-21T07:46:09.624Z,102216.88
2022-09-21T07:48:36.597Z,102216.94
2022-09-21T07:51:09.490Z,102210.09
2022-09-21T07:53:38.887Z,102204.28
2022-09-21T07:56:08.969Z,102204.53
2022-09-21T07:58:56.130Z,102188.88
2022-09-21T08:01:24.294Z,102192.22
2022-09-21T08:03:52.689Z,102182.09
2022-09-21T08:06:20.335Z,102196.84
2022-09-21T08:08:48.417Z,102189.78
2022-09-21T08:11:17.447Z,102193.78
2022-09-21T08:13:44.555Z,102188.41
2022-09-21T08:16:12.308Z,102184.84
2022-09-21T08:18:41.307Z,102174.38
2022-09-21T08:21:12.161Z,102182.44
2022-09-21T08:23:42.950Z,102179.66
2022-09-21T08:26:18.832Z,102175.81
2022-09-21T08:28:50.595Z,102173.97
2022-09-21T08:31:19.785Z,102167.75
2022-09-21T08:33:47.937Z,102171.34
2022-09-21T08:36:14.955Z,102172.84
2022-09-21T08:38:42.109Z,102169.03
2022-09-21T08:41:26.535Z,102171.59
2022-09-21T08:43:58.383Z,102151.84
2022-09-21T08:46:29.087Z,102158.28
2022-09-21T08:49:07.192Z,102163.34
2022-09-21T08:51:44.190Z,102164.34
2022-09-21T08:54:22.919Z,102158.66
2022-09-21T08:57:04.356Z,102164.75
2022-09-21T08:59:32.263Z,102169.31
2022-09-21T09:02:36.332Z,102162.19
2022-09-21T09:05:22.176Z,102154.22
2022-09-21T09:08:03.965Z,102149.81
2022-09-21T09:10:38.905Z,102155.19
2022-09-21T09:13:35.852Z,102152.00
2022-09-21T09:16:30.227Z,102159.56
2022-09-21T09:19:06.144Z,102151.19
2022-09-21T09:21:39.479Z,102150.56
2022-09-21T09:24:15.131Z,102146.50
2022-09-21T09:26:52.016Z,102157.22
2022-09-21T09:29:29.599Z,102159.88
2022-09-21T09:31:59.422Z,102152.88
2022-09-21T09:34:35.727Z,102159.88
2022-09-21T09:37:16.969Z,102149.47
2022-09-21T09:39:50.972Z,102156.25
2022-09-21T09:42:46.907Z,102156.59
2022-09-21T09:45:33.918Z,102163.50
2022-09-21T09:48:12.784Z,102167.53
2022-09-21T09:50:42.038Z,102161.94
2022-09-21T09:53:16.447Z,102163.28
2022-09-21T09:55:49.762Z,102154.78
2022-09-21T09:58:23.974Z,102161.81
2022-09-21T10:00:55.577Z,102154.88
2022-09-21T10:03:25.272Z,102146.09
2022-09-21T10:05:53.045Z,102151.69
2022-09-21T10:08:39.493Z,102146.00
2022-09-21T10:11:06.649Z,102147.81
2022-09-21T10:13:35.746Z,102149.59
2022-09-21T10:16:06.696Z,102144.97
2022-09-21T10:19:01.857Z,102148.19
2022-09-21T10:21:37.326Z,102137.63
2022-09-21T10:24:15.074Z,102135.06
2022-09-21T10:26:47.562Z,102126.28
2022-09-21T10:29:23.563Z,102126.63
2022-09-21T10:31:57.475Z,102138.66
2022-09-21T10:34:25.846Z,102132.22
2022-09-21T10:36:56.229Z,102127.69
2022-09-21T10:39:27.585Z,102117.06
2022-09-21T10:41:59.596Z,102118.56
2022-09-21T10:44:40.617Z,102112.84
2022-09-21T10:47:34.387Z,102111.06
2022-09-21T10:50:04.555Z,102106.81
2022-09-21T10:52:45.945Z,102104.78
2022-09-21T10:55:19.954Z,102103.75
2022-09-21T10:57:48.131Z,102096.50
2022-09-21T11:00:24.131Z,102100.78
2022-09-21T11:02:51.213Z,102098.84
2022-09-21T11:05:25.595Z,102092.56
2022-09-21T11:07:58.277Z,102104.28
2022-09-21T11:10:52.983Z,102102.59
2022-09-21T11:13:52.076Z,102093.75
2022-09-21T11:16:31.735Z,102090.47
2022-09-21T11:19:30.562Z,102081.00
2022-09-21T11:22:46.859Z,102069.84
2022-09-21T11:25:31.216Z,102082.59
2022-09-21T11:28:19.706Z,102065.53
2022-09-21T11:31:26.184Z,102061.81
2022-09-21T11:34:16.384Z,102046.81
2022-09-21T11:37:01.246Z,102056.72
2022-09-21T11:39:46.670Z,102058.94
2022-09-21T11:42:33.121Z,102048.03
2022-09-21T11:45:07.593Z,102048.03
2022-09-21T11:47:52.821Z,102048.81
2022-09-21T11:50:44.761Z,102052.78
2022-09-21T11:53:53.883Z,102040.47
2022-09-21T11:56:20.721Z,102044.50
2022-09-21T11:59:23.056Z,102044.59
2022-09-21T12:02:22.346Z,102027.75
2022-09-21T12:05:14.125Z,102027.97
2022-09-21T12:08:05.760Z,102023.16
2022-09-21T12:11:03.674Z,102024.88
2022-09-21T12:13:40.911Z,102028.50
2022-09-21T12:16:17.974Z,102025.81
2022-09-21T12:19:04.806Z,102023.66
2022-09-21T12:21:39.837Z,102021.06
2022-09-21T12:24:47.605Z,102005.91
2022-09-21T12:27:40.080Z,101997.25
2022-09-21T12:30:34.343Z,102004.75
2022-09-21T12:33:10.279Z,102004.56
2022-09-21T12:35:44.977Z,102000.63
2022-09-21T12:41:34.560Z,102006.69
2022-09-21T12:44:07.556Z,102000.28
2022-09-21T12:46:55.620Z,101996.66
2022-09-21T12:49:30.510Z,102012.19
2022-09-21T12:52:01.556Z,102010.25
2022-09-21T12:54:50.814Z,102009.44
2022-09-21T12:58:10.850Z,102002.25
2022-09-21T13:01:02.574Z,102007.59
2022-09-21T13:03:40.689Z,102001.22
2022-09-21T13:06:45.731Z,101994.03
2022-09-21T13:09:15.598Z,101989.41
2022-09-21T13:11:57.127Z,101993.03
2022-09-21T13:14:36.452Z,101977.72
2022-09-21T13:17:06.024Z,101981.69
2022-09-21T13:19:35.876Z,101982.81
2022-09-21T13:22:14.710Z,101976.75
2022-09-21T13:24:43.032Z,101982.09
2022-09-21T13:27:10.177Z,101974.63
2022-09-21T13:29:40.458Z,101974.97
2022-09-21T13:32:14.073Z,101975.31
2022-09-21T13:34:42.803Z,101972.13
2022-09-21T13:37:15.108Z,101974.34
2022-09-21T13:39:51.017Z,101954.09
2022-09-21T13:42:33.329Z,101951.06
2022-09-21T13:45:03.543Z,101954.78
2022-09-21T13:47:36.068Z,101957.66
2022-09-21T13:50:12.095Z,101977.75
2022-09-21T13:52:46.243Z,101970.28
2022-09-21T13:55:32.134Z,101970.44
2022-09-21T13:58:06.751Z,101962.00
2022-09-21T14:00:54.329Z,101957.50
2022-09-21T14:03:29.417Z,101965.38
2022-09-21T14:06:03.133Z,101959.31
2022-09-21T14:08:33.863Z,101949.63
2022-09-21T14:11:06.544Z,101961.16
2022-09-21T14:13:39.069Z,101958.03
2022-09-21T14:16:40.205Z,101966.19
2022-09-21T14:19:19.449Z,101967.03
2022-09-21T14:22:04.981Z,101963.56
2022-09-21T14:24:36.418Z,101956.22
2022-09-21T14:27:23.804Z,101960.16
2022-09-21T14:30:08.070Z,101954.50
2022-09-21T14:32:42.824Z,101959.41
2022-09-21T14:35:19.194Z,101965.00
2022-09-21T14:38:19.621Z,101950.13
2022-09-21T14:40:52.305Z,101954.53
2022-09-21T14:43:39.782Z,101948.63
2022-09-21T14:46:16.784Z,101931.56
2022-09-21T14:49:09.560Z,101938.44
2022-09-21T14:52:20.254Z,101951.88
2022-09-21T14:55:24.808Z,101939.53
2022-09-21T14:58:03.029Z,101933.88
2022-09-21T15:00:39.875Z,101930.66
2022-09-21T15:03:39.497Z,101918.97
2022-09-21T15:06:41.107Z,101914.66
2022-09-21T15:09:53.579Z,101908.84
2022-09-21T15:12:27.739Z,101888.31
2022-09-21T15:15:20.493Z,101899.84
2022-09-21T15:18:00.048Z,101889.56
2022-09-21T15:20:29.735Z,101900.03
2022-09-21T15:23:00.876Z,101889.09
2022-09-21T15:25:32.175Z,101883.63
2022-09-21T15:28:00.415Z,101886.91
2022-09-21T15:30:33.308Z,101878.38
2022-09-21T15:33:02.282Z,101877.00
2022-09-21T15:35:33.015Z,101871.44
2022-09-21T15:38:01.492Z,101876.47
2022-09-21T15:40:32.464Z,101876.06
2022-09-21T15:43:02.449Z,101860.44
2022-09-21T15:45:34.113Z,101856.91
2022-09-21T15:48:02.182Z,101853.22
2022-09-21T15:50:30.157Z,101848.84
2022-09-21T15:53:16.031Z,101841.06
2022-09-21T15:55:47.947Z,101836.38
2022-09-21T15:58:42.741Z,101837.31
2022-09-21T16:01:28.529Z,101832.47
2022-09-21T16:04:08.231Z,101837.88
2022-09-21T16:06:41.833Z,101846.34
2022-09-21T16:09:45.274Z,101850.88
2022-09-21T16:12:27.330Z,101845.59
2022-09-21T16:14:54.733Z,101846.28
2022-09-21T16:17:29.308Z,101845.00
2022-09-21T16:19:56.809Z,101839.97
2022-09-21T16:22:23.714Z,101845.47
2022-09-21T16:24:55.524Z,101836.31
2022-09-21T16:27:29.075Z,101841.66
2022-09-21T16:29:57.546Z,101839.97
2022-09-21T16:32:30.080Z,101829.09
2022-09-21T16:35:27.526Z,101827.78
2022-09-21T16:37:58.265Z,101821.72
2022-09-21T16:40:29.028Z,101837.84
2022-09-21T16:42:57.024Z,101824.28
2022-09-21T16:45:32.569Z,101820.94
2022-09-21T16:47:59.928Z,101826.50
2022-09-21T16:50:26.993Z,101810.28
2022-09-21T16:52:53.964Z,101817.19
2022-09-21T16:55:25.518Z,101811.63
2022-09-21T16:57:55.189Z,101810.28
2022-09-21T17:00:22.387Z,101804.00
2022-09-21T17:02:49.590Z,101803.63
2022-09-21T17:05:19.497Z,101811.72
2022-09-21T17:07:57.456Z,101802.53
2022-09-21T17:10:29.349Z,101806.63
2022-09-21T17:12:56.967Z,101808.78
2022-09-21T17:15:25.696Z,101800.66
2022-09-21T17:17:52.649Z,101801.03
2022-09-21T17:20:38.292Z,101810.03
2022-09-21T17:23:05.817Z,101811.59
2022-09-21T17:25:34.020Z,101807.16
2022-09-21T17:28:02.346Z,101802.88
2022-09-21T17:30:29.600Z,101820.84
2022-09-21T17:32:58.435Z,101830.13
2022-09-21T17:35:34.179Z,101830.59
2022-09-21T17:38:01.024Z,101829.09
2022-09-21T17:40:28.320Z,101825.59
2022-09-21T17:43:08.903Z,101826.03
2022-09-21T17:45:46.799Z,101827.34
2022-09-21T17:48:20.089Z,101833.19
2022-09-21T17:50:48.060Z,101832.31
2022-09-21T17:53:33.590Z,101826.38
2022-09-21T17:56:29.829Z,101828.31
2022-09-21T17:58:59.955Z,101832.03
2022-09-21T18:01:33.625Z,101823.69
2022-09-21T18:04:01.153Z,101828.97
2022-09-21T18:06:29.278Z,101823.88
2022-09-21T18:08:57.612Z,101824.09
2022-09-21T18:11:27.262Z,101815.53
2022-09-21T18:14:09.103Z,101820.94
2022-09-21T18:17:05.396Z,101821.25
2022-09-21T18:20:03.110Z,101824.97
2022-09-21T18:23:03.328Z,101815.44
2022-09-21T18:25:34.681Z,101812.13
2022-09-21T18:28:12.475Z,101803.44
2022-09-21T18:30:46.497Z,101806.31
2022-09-21T18:33:27.164Z,101806.31
2022-09-21T18:36:25.847Z,101812.91
2022-09-21T18:39:19.719Z,101814.94
2022-09-21T18:42:29.689Z,101818.75
2022-09-21T18:45:07.471Z,101814.59
2022-09-21T18:47:59.561Z,101826.19
2022-09-21T18:51:05.108Z,101829.13
2022-09-21T18:53:45.374Z,101820.75
2022-09-21T18:56:13.437Z,101830.53
2022-09-21T18:58:42.988Z,101825.91
2022-09-21T19:01:15.200Z,101824.38
2022-09-21T19:03:45.594Z,101822.16
2022-09-21T19:06:26.563Z,101822.09
2022-09-21T19:09:22.946Z,101825.00
2022-09-21T19:12:28.598Z,101826.47
2022-09-21T19:15:56.041Z,101826.00
2022-09-21T19:18:44.051Z,101823.78
2022-09-21T19:21:27.503Z,101827.44
2022-09-21T19:24:30.776Z,101831.16
2022-09-21T19:27:31.372Z,101834.81
2022-09-21T19:30:12.382Z,101826.97
2022-09-21T19:32:45.372Z,101823.59
2022-09-21T19:35:27.123Z,101821.03
2022-09-21T19:37:59.077Z,101813.19
2022-09-21T19:40:28.787Z,101819.63
2022-09-21T19:43:33.009Z,101815.25
2022-09-21T19:46:05.343Z,101817.16
2022-09-21T19:48:44.091Z,101823.50
2022-09-21T19:51:22.052Z,101832.38
2022-09-21T19:54:15.823Z,101836.81
2022-09-21T19:57:07.249Z,101828.97
2022-09-21T19:59:43.664Z,101825.59
2022-09-21T20:02:43.214Z,101826.63
2022-09-21T20:05:52.202Z,101824.94
2022-09-21T20:09:07.896Z,101804.34
2022-09-21T20:11:34.938Z,101815.38
2022-09-21T20:14:10.134Z,101815.38
2022-09-21T20:16:55.025Z,101815.28
2022-09-21T20:19:44.822Z,101823.22
